createdAt,value
2023-04-06T00:01:04.241Z,48.60
2023-04-06T00:03:31.332Z,48.50
2023-04-06T00:05:58.499Z,48.83
2023-04-06T00:08:26.795Z,48.67
2023-04-06T00:10:53.797Z,48.77
2023-04-06T00:13:21.058Z,48.76
2023-04-06T00:15:47.991Z,48.76
2023-04-06T00:18:14.999Z,48.86
2023-04-06T00:20:41.963Z,48.90
2023-04-06T00:23:08.948Z,49.00
2023-04-06T00:25:36.727Z,49.10
2023-04-06T00:28:04.481Z,49.19
2023-04-06T00:30:31.502Z,49.46
2023-04-06T00:32:58.514Z,49.22
2023-04-06T00:35:25.636Z,49.20
2023-04-06T00:37:52.660Z,49.43
2023-04-06T00:40:19.941Z,49.28
2023-04-06T00:42:47.051Z,49.13
2023-04-06T00:45:13.999Z,49.08
2023-04-06T00:47:41.238Z,49.44
2023-04-06T00:50:09.070Z,49.37
2023-04-06T00:52:36.675Z,49.41
2023-04-06T00:55:05.139Z,49.53
2023-04-06T00:57:33.028Z,49.30
2023-04-06T01:00:00.098Z,49.59
2023-04-06T01:02:27.340Z,49.27
2023-04-06T01:04:55.751Z,49.40
2023-04-06T01:07:28.506Z,49.32
2023-04-06T01:10:12.378Z,49.22
2023-04-06T01:12:39.843Z,49.57
2023-04-06T01:15:14.498Z,49.46
2023-04-06T01:17:44.232Z,49.45
2023-04-06T01:20:15.394Z,49.40
2023-04-06T01:22:42.483Z,49.46
2023-04-06T01:25:11.178Z,49.57
2023-04-06T01:27:44.176Z,49.47
2023-04-06T01:30:23.903Z,49.68
2023-04-06T01:32:54.434Z,49.60
2023-04-06T01:35:36.139Z,49.92
2023-04-06T01:38:13.040Z,49.73
2023-04-06T01:40:40.055Z,49.67
2023-04-06T01:43:07.534Z,49.78
2023-04-06T01:45:42.102Z,49.75
2023-04-06T01:48:17.665Z,50.04
2023-04-06T01:50:44.672Z,50.13
2023-04-06T01:53:16.486Z,49.82
2023-04-06T01:55:46.201Z,49.91
2023-04-06T01:58:19.722Z,49.99
2023-04-06T02:00:46.714Z,49.90
2023-04-06T02:03:15.647Z,49.96
2023-04-06T02:05:43.312Z,49.77
2023-04-06T02:08:31.056Z,49.76
2023-04-06T02:10:58.668Z,49.88
2023-04-06T02:13:32.038Z,50.02
2023-04-06T02:15:59.593Z,49.79
2023-04-06T02:18:29.190Z,49.98
2023-04-06T02:20:56.768Z,50.36
2023-04-06T02:23:23.799Z,50.21
2023-04-06T02:25:51.124Z,50.26
2023-04-06T02:28:18.186Z,50.20
2023-04-06T02:30:45.225Z,50.34
2023-04-06T02:33:12.481Z,50.27
2023-04-06T02:35:46.931Z,50.20
2023-04-06T02:38:14.211Z,50.10
2023-04-06T02:40:41.615Z,50.51
2023-04-06T02:43:26.406Z,50.31
2023-04-06T02:46:01.973Z,50.38
2023-04-06T02:48:30.163Z,50.33
2023-04-06T02:50:57.115Z,50.68
2023-04-06T02:53:24.101Z,50.37
2023-04-06T02:55:51.089Z,50.72
2023-04-06T02:58:18.072Z,50.61
2023-04-06T03:00:49.513Z,50.76
2023-04-06T03:03:16.653Z,50.97
2023-04-06T03:05:45.342Z,51.16
2023-04-06T03:08:13.174Z,51.17
2023-04-06T03:10:45.369Z,50.91
2023-04-06T03:13:12.878Z,51.04
2023-04-06T03:15:46.106Z,50.79
2023-04-06T03:18:16.764Z,50.85
2023-04-06T03:20:48.150Z,51.05
2023-04-06T03:23:17.271Z,51.10
2023-04-06T03:25:45.930Z,50.70
2023-04-06T03:28:17.086Z,50.74
2023-04-06T03:30:53.988Z,50.76
2023-04-06T03:33:37.444Z,51.13
2023-04-06T03:36:05.585Z,50.87
2023-04-06T03:38:36.419Z,51.08
2023-04-06T03:41:09.093Z,51.33
2023-04-06T03:43:36.404Z,51.02
2023-04-06T03:46:03.388Z,50.98
2023-04-06T03:48:30.554Z,51.32
2023-04-06T03:51:01.592Z,51.58
2023-04-06T03:53:28.543Z,51.37
2023-04-06T03:55:55.505Z,51.39
2023-04-06T03:58:22.535Z,51.52
2023-04-06T04:00:49.540Z,51.90
2023-04-06T04:03:17.670Z,52.41
2023-04-06T04:05:44.750Z,52.57
2023-04-06T04:08:12.774Z,52.16
2023-04-06T04:10:39.802Z,52.00
2023-04-06T04:13:07.031Z,52.13
2023-04-06T04:15:33.997Z,51.77
2023-04-06T04:18:01.027Z,52.19
2023-04-06T04:20:29.458Z,52.28
2023-04-06T04:22:56.573Z,52.34
2023-04-06T04:25:24.582Z,51.99
2023-04-06T04:27:51.681Z,52.32
2023-04-06T04:30:20.611Z,52.44
2023-04-06T04:32:48.037Z,52.40
2023-04-06T04:35:18.769Z,52.39
2023-04-06T04:37:45.780Z,52.58
2023-04-06T04:40:13.073Z,52.65
2023-04-06T04:42:52.131Z,52.11
2023-04-06T04:45:28.727Z,52.63
2023-04-06T04:47:56.369Z,52.91
2023-04-06T04:50:26.607Z,52.53
2023-04-06T04:52:57.537Z,52.71
2023-04-06T04:55:27.012Z,53.16
2023-04-06T04:57:56.709Z,52.47
2023-04-06T05:00:33.528Z,53.48
2023-04-06T05:03:01.551Z,52.81
2023-04-06T05:05:31.419Z,53.16
2023-04-06T05:07:58.523Z,52.83
2023-04-06T05:10:38.953Z,52.15
2023-04-06T05:13:06.421Z,52.90
2023-04-06T05:15:42.436Z,52.68
2023-04-06T05:18:33.187Z,52.64
2023-04-06T05:21:01.557Z,52.65
2023-04-06T05:23:37.463Z,52.97
2023-04-06T05:26:05.534Z,52.77
2023-04-06T05:28:33.789Z,52.53
2023-04-06T05:31:02.431Z,52.82
2023-04-06T05:33:36.008Z,53.21
2023-04-06T05:36:09.401Z,52.84
2023-04-06T05:38:40.550Z,52.55
2023-04-06T05:41:18.347Z,52.87
2023-04-06T05:43:45.815Z,53.89
2023-04-06T05:46:12.919Z,54.81
2023-04-06T05:48:40.462Z,54.03
2023-04-06T05:51:08.177Z,54.14
2023-04-06T05:53:46.959Z,54.23
2023-04-06T05:56:13.955Z,54.60
2023-04-06T05:58:41.815Z,54.37
2023-04-06T06:01:11.264Z,54.29
2023-04-06T06:03:42.571Z,54.80
2023-04-06T06:06:09.555Z,53.74
2023-04-06T06:09:01.714Z,53.37
2023-04-06T06:11:29.995Z,53.07
2023-04-06T06:13:57.691Z,55.10
2023-04-06T06:16:25.966Z,54.81
2023-04-06T06:18:53.035Z,55.35
2023-04-06T06:21:20.573Z,54.93
2023-04-06T06:23:49.162Z,55.13
2023-04-06T06:26:19.550Z,55.00
2023-04-06T06:28:47.280Z,56.12
2023-04-06T06:31:14.901Z,54.52
2023-04-06T06:33:43.786Z,56.18
2023-04-06T06:36:11.188Z,55.17
2023-04-06T06:38:39.748Z,54.88
2023-04-06T06:41:06.808Z,54.99
2023-04-06T06:43:36.195Z,55.14
2023-04-06T06:46:07.677Z,55.39
2023-04-06T06:48:34.775Z,55.08
2023-04-06T06:51:01.800Z,55.18
2023-04-06T06:53:28.893Z,55.21
2023-04-06T06:55:57.001Z,55.18
2023-04-06T06:58:24.445Z,54.76
2023-04-06T07:00:51.471Z,55.42
2023-04-06T07:03:18.624Z,55.12
2023-04-06T07:05:54.302Z,54.99
2023-04-06T07:08:24.979Z,55.29
2023-04-06T07:10:53.672Z,55.33
2023-04-06T07:13:24.827Z,55.45
2023-04-06T07:15:54.560Z,55.08
2023-04-06T07:18:22.191Z,55.24
2023-04-06T07:20:49.491Z,55.40
2023-04-06T07:23:17.263Z,55.55
2023-04-06T07:25:44.271Z,54.97
2023-04-06T07:28:11.237Z,55.25
2023-04-06T07:30:39.306Z,55.06
2023-04-06T07:33:07.032Z,55.06
2023-04-06T07:35:37.509Z,54.98
2023-04-06T07:38:05.849Z,55.00
2023-04-06T07:40:34.439Z,55.00
2023-04-06T07:43:02.835Z,54.87
2023-04-06T07:45:30.534Z,54.71
2023-04-06T07:47:58.190Z,54.55
2023-04-06T07:50:26.951Z,54.78
2023-04-06T07:52:54.761Z,54.99
2023-04-06T07:55:21.937Z,54.53
2023-04-06T07:57:48.955Z,54.51
2023-04-06T08:00:16.596Z,53.52
2023-04-06T08:02:43.714Z,53.82
2023-04-06T08:05:10.853Z,53.74
2023-04-06T08:07:37.959Z,53.87
2023-04-06T08:10:05.370Z,54.17
2023-04-06T08:12:34.816Z,53.92
2023-04-06T08:15:03.257Z,53.69
2023-04-06T08:17:32.014Z,53.54
2023-04-06T08:19:58.976Z,53.07
2023-04-06T08:22:25.941Z,53.07
2023-04-06T08:24:52.929Z,53.21
2023-04-06T08:27:20.276Z,52.46
2023-04-06T08:29:48.266Z,52.75
2023-04-06T08:32:15.186Z,52.77
2023-04-06T08:34:42.126Z,51.88
2023-04-06T08:37:09.173Z,52.47
2023-04-06T08:39:36.201Z,51.96
2023-04-06T08:42:04.086Z,52.81
2023-04-06T08:44:33.757Z,53.66
2023-04-06T08:47:01.238Z,52.53
2023-04-06T08:49:29.122Z,52.70
2023-04-06T08:51:58.101Z,52.26
2023-04-06T08:54:25.550Z,52.72
2023-04-06T08:56:54.553Z,52.69
2023-04-06T08:59:21.689Z,52.35
2023-04-06T09:01:48.995Z,52.57
2023-04-06T09:04:17.148Z,52.26
2023-04-06T09:06:44.973Z,52.87
2023-04-06T09:09:12.741Z,52.46
2023-04-06T09:11:51.053Z,52.80
2023-04-06T09:14:18.588Z,52.70
2023-04-06T09:16:46.928Z,52.68
2023-04-06T09:19:14.235Z,52.56
2023-04-06T09:21:41.276Z,51.95
2023-04-06T09:24:09.731Z,52.64
2023-04-06T09:26:48.560Z,53.36
2023-04-06T09:29:29.029Z,52.23
2023-04-06T09:32:08.148Z,51.37
2023-04-06T09:34:35.565Z,52.66
2023-04-06T09:37:20.360Z,51.38
2023-04-06T09:39:47.846Z,51.99
2023-04-06T09:42:27.208Z,53.26
2023-04-06T09:44:54.192Z,52.61
2023-04-06T09:47:21.636Z,52.10
2023-04-06T09:49:55.444Z,52.30
2023-04-06T09:52:25.210Z,52.52
2023-04-06T09:54:54.505Z,52.26
2023-04-06T09:57:47.558Z,52.07
2023-04-06T10:00:20.076Z,51.74
2023-04-06T10:03:00.868Z,50.69
2023-04-06T10:05:35.235Z,49.15
2023-04-06T10:08:10.391Z,50.96
2023-04-06T10:10:38.825Z,51.13
2023-04-06T10:13:06.906Z,51.50
2023-04-06T10:15:34.818Z,49.92
2023-04-06T10:18:03.050Z,50.32
2023-04-06T10:20:55.590Z,52.16
2023-04-06T10:23:35.796Z,51.97
2023-04-06T10:26:03.939Z,51.34
2023-04-06T10:28:36.738Z,46.62
2023-04-06T10:31:07.006Z,49.44
2023-04-06T10:33:34.802Z,50.35
2023-04-06T10:36:16.333Z,49.14
2023-04-06T10:38:43.633Z,48.40
2023-04-06T10:41:13.051Z,50.08
2023-04-06T10:43:42.156Z,48.97
2023-04-06T10:46:12.779Z,49.53
2023-04-06T10:48:44.958Z,49.23
2023-04-06T10:51:15.139Z,48.44
2023-04-06T10:53:49.936Z,49.28
2023-04-06T10:56:19.093Z,49.17
2023-04-06T10:58:52.083Z,49.04
2023-04-06T11:01:21.754Z,49.02
2023-04-06T11:03:51.991Z,49.35
2023-04-06T11:06:27.695Z,48.46
2023-04-06T11:08:55.818Z,50.28
2023-04-06T11:11:27.212Z,50.04
2023-04-06T11:14:02.040Z,50.16
2023-04-06T11:16:32.996Z,48.79
2023-04-06T11:19:03.513Z,49.87
2023-04-06T11:21:48.377Z,50.97
2023-04-06T11:24:24.997Z,47.69
2023-04-06T11:26:52.974Z,46.46
2023-04-06T11:29:23.668Z,44.90
2023-04-06T11:31:54.406Z,43.84
2023-04-06T11:34:22.873Z,42.28
2023-04-06T11:36:57.587Z,42.23
2023-04-06T11:39:26.713Z,40.60
2023-04-06T11:42:04.480Z,44.88
2023-04-06T11:44:40.133Z,44.83
2023-04-06T11:47:10.260Z,44.71
2023-04-06T11:49:48.517Z,41.59
2023-04-06T11:52:20.692Z,43.27
2023-04-06T11:54:50.266Z,40.50
2023-04-06T11:57:18.807Z,43.18
2023-04-06T11:59:46.801Z,42.57
2023-04-06T12:02:13.939Z,42.77
2023-04-06T12:04:41.009Z,42.74
2023-04-06T12:07:07.953Z,42.80
2023-04-06T12:09:35.566Z,43.31
2023-04-06T12:12:02.910Z,44.39
2023-04-06T12:14:31.626Z,45.54
2023-04-06T12:16:59.513Z,45.46
2023-04-06T12:19:26.910Z,43.91
2023-04-06T12:21:55.341Z,39.50
2023-04-06T12:24:22.458Z,41.12
2023-04-06T12:26:51.666Z,39.36
2023-04-06T12:29:21.265Z,39.13
2023-04-06T12:31:48.304Z,38.99
2023-04-06T12:34:15.235Z,40.37
2023-04-06T12:36:42.243Z,38.83
2023-04-06T12:39:09.239Z,40.25
2023-04-06T12:41:36.607Z,40.75
2023-04-06T12:44:04.000Z,40.43
2023-04-06T12:46:31.737Z,39.16
2023-04-06T12:49:00.036Z,41.58
2023-04-06T12:51:30.195Z,38.87
2023-04-06T12:53:57.116Z,40.48
2023-04-06T12:56:24.082Z,41.73
2023-04-06T12:58:53.238Z,40.92
2023-04-06T13:01:20.879Z,40.13
2023-04-06T13:03:48.178Z,41.60
2023-04-06T13:06:16.238Z,40.92
2023-04-06T13:08:44.138Z,40.37
2023-04-06T13:11:11.374Z,39.99
2023-04-06T13:13:38.799Z,38.91
2023-04-06T13:16:08.919Z,39.15
2023-04-06T13:18:37.749Z,38.62
2023-04-06T13:21:06.094Z,37.99
2023-04-06T13:23:33.126Z,38.53
2023-04-06T13:26:04.399Z,37.13
2023-04-06T13:28:31.897Z,38.19
2023-04-06T13:31:04.273Z,39.61
2023-04-06T13:33:31.815Z,37.72
2023-04-06T13:35:59.920Z,38.94
2023-04-06T13:38:26.920Z,39.64
2023-04-06T13:40:53.869Z,40.73
2023-04-06T13:43:21.376Z,39.17
2023-04-06T13:45:56.663Z,40.82
2023-04-06T13:48:23.804Z,38.91
2023-04-06T13:50:50.980Z,36.56
2023-04-06T13:53:18.036Z,37.08
2023-04-06T13:55:52.716Z,36.61
2023-04-06T13:58:19.713Z,37.57
2023-04-06T14:00:47.176Z,38.36
2023-04-06T14:03:14.462Z,37.06
2023-04-06T14:05:42.583Z,37.66
2023-04-06T14:08:09.564Z,38.46
2023-04-06T14:10:41.835Z,37.28
2023-04-06T14:13:09.100Z,35.64
2023-04-06T14:15:36.290Z,37.47
2023-04-06T14:18:06.817Z,39.03
2023-04-06T14:20:33.947Z,38.17
2023-04-06T14:23:02.724Z,37.06
2023-04-06T14:25:32.403Z,37.72
2023-04-06T14:27:59.450Z,37.25
2023-04-06T14:30:26.638Z,37.47
2023-04-06T14:32:53.710Z,38.45
2023-04-06T14:35:20.726Z,39.21
2023-04-06T14:37:48.124Z,38.53
2023-04-06T14:40:15.254Z,39.09
2023-04-06T14:42:42.186Z,37.65
2023-04-06T14:45:09.484Z,36.66
2023-04-06T14:47:36.684Z,37.39
2023-04-06T14:50:04.072Z,38.45
2023-04-06T14:52:32.697Z,38.87
2023-04-06T14:54:59.960Z,38.79
2023-04-06T14:57:26.961Z,38.19
2023-04-06T14:59:55.347Z,39.32
2023-04-06T15:02:22.443Z,39.11
2023-04-06T15:04:49.522Z,38.96
2023-04-06T15:07:16.496Z,40.15
2023-04-06T15:09:43.518Z,39.12
2023-04-06T15:12:10.642Z,40.62
2023-04-06T15:14:37.591Z,40.51
2023-04-06T15:17:04.526Z,39.97
2023-04-06T15:19:31.470Z,39.69
2023-04-06T15:21:59.729Z,39.22
2023-04-06T15:24:27.957Z,40.48
2023-04-06T15:26:54.989Z,40.44
2023-04-06T15:29:21.960Z,40.79
2023-04-06T15:31:49.041Z,40.14
2023-04-06T15:34:16.385Z,40.71
2023-04-06T15:36:44.502Z,39.52
2023-04-06T15:39:11.438Z,39.23
2023-04-06T15:41:38.493Z,40.14
2023-04-06T15:44:06.163Z,39.48
2023-04-06T15:46:33.198Z,40.58
2023-04-06T15:49:00.185Z,40.44
2023-04-06T15:51:27.416Z,40.35
2023-04-06T15:53:54.368Z,40.39
2023-04-06T15:56:21.404Z,39.86
2023-04-06T15:58:48.541Z,38.57
2023-04-06T16:01:17.692Z,39.05
2023-04-06T16:03:45.620Z,38.76
2023-04-06T16:06:12.954Z,39.61
2023-04-06T16:08:40.668Z,40.71
2023-04-06T16:11:08.904Z,39.93
2023-04-06T16:13:36.976Z,40.60
2023-04-06T16:16:06.052Z,39.93
2023-04-06T16:18:35.764Z,40.71
2023-04-06T16:21:04.071Z,40.28
2023-04-06T16:23:31.156Z,39.42
2023-04-06T16:25:58.245Z,40.66
2023-04-06T16:28:25.821Z,41.01
2023-04-06T16:30:52.951Z,40.68
2023-04-06T16:33:20.125Z,40.37
2023-04-06T16:35:48.432Z,39.95
2023-04-06T16:38:16.655Z,40.35
2023-04-06T16:40:43.638Z,40.07
2023-04-06T16:43:10.666Z,40.59
2023-04-06T16:45:38.329Z,40.10
2023-04-06T16:48:06.665Z,40.48
2023-04-06T16:50:35.767Z,40.73
2023-04-06T16:53:02.854Z,41.17
2023-04-06T16:55:29.824Z,40.97
2023-04-06T16:57:56.790Z,39.97
2023-04-06T17:00:24.050Z,40.75
2023-04-06T17:02:51.358Z,40.84
2023-04-06T17:05:24.465Z,41.45
2023-04-06T17:07:51.854Z,40.64
2023-04-06T17:10:24.261Z,40.77
2023-04-06T17:13:00.167Z,40.99
2023-04-06T17:15:28.675Z,40.68
2023-04-06T17:17:55.786Z,40.23
2023-04-06T17:20:22.781Z,40.21
2023-04-06T17:22:49.784Z,39.70
2023-04-06T17:25:17.030Z,39.84
2023-04-06T17:27:44.190Z,40.30
2023-04-06T17:30:13.921Z,40.58
2023-04-06T17:32:41.647Z,40.48
2023-04-06T17:35:11.126Z,40.92
2023-04-06T17:37:39.002Z,41.31
2023-04-06T17:40:07.140Z,40.83
2023-04-06T17:42:34.078Z,41.14
2023-04-06T17:45:01.619Z,41.36
2023-04-06T17:47:31.988Z,41.71
2023-04-06T17:49:59.919Z,41.96
2023-04-06T17:52:28.474Z,41.83
2023-04-06T17:54:56.368Z,41.81
2023-04-06T17:57:23.440Z,42.39
2023-04-06T17:59:50.480Z,42.67
2023-04-06T18:02:18.625Z,42.71
2023-04-06T18:04:45.859Z,42.90
2023-04-06T18:07:12.910Z,42.80
2023-04-06T18:09:39.992Z,43.09
2023-04-06T18:12:07.401Z,43.25
2023-04-06T18:14:34.410Z,43.14
2023-04-06T18:17:01.747Z,43.43
2023-04-06T18:19:28.874Z,42.88
2023-04-06T18:21:55.873Z,43.48
2023-04-06T18:24:32.154Z,43.71
2023-04-06T18:27:08.191Z,43.51
2023-04-06T18:29:36.729Z,43.97
2023-04-06T18:32:05.503Z,43.90
2023-04-06T18:34:33.163Z,44.29
2023-04-06T18:37:01.523Z,44.21
2023-04-06T18:39:28.786Z,44.19
2023-04-06T18:41:55.965Z,44.22
2023-04-06T18:44:23.010Z,44.23
2023-04-06T18:46:54.358Z,44.10
2023-04-06T18:49:22.270Z,44.69
2023-04-06T18:51:49.411Z,44.54
2023-04-06T18:54:16.498Z,44.57
2023-04-06T18:56:43.426Z,44.26
2023-04-06T18:59:11.922Z,44.87
2023-04-06T19:01:43.463Z,45.23
2023-04-06T19:04:11.553Z,45.15
2023-04-06T19:06:38.832Z,45.27
2023-04-06T19:09:05.892Z,45.18
2023-04-06T19:11:33.083Z,45.56
2023-04-06T19:14:00.064Z,45.44
2023-04-06T19:16:27.311Z,45.45
2023-04-06T19:18:55.007Z,45.44
2023-04-06T19:21:24.556Z,46.47
2023-04-06T19:23:55.260Z,45.86
2023-04-06T19:26:23.970Z,46.01
2023-04-06T19:28:51.330Z,45.80
2023-04-06T19:31:18.910Z,46.19
2023-04-06T19:33:47.265Z,46.70
2023-04-06T19:36:14.808Z,46.24
2023-04-06T19:38:41.950Z,46.15
2023-04-06T19:41:09.471Z,46.34
2023-04-06T19:43:36.649Z,47.23
2023-04-06T19:46:04.657Z,47.30
2023-04-06T19:48:33.768Z,46.54
2023-04-06T19:51:01.064Z,47.06
2023-04-06T19:53:28.125Z,46.51
2023-04-06T19:55:55.174Z,46.71
2023-04-06T19:58:22.159Z,47.69
2023-04-06T20:00:49.420Z,48.98
2023-04-06T20:03:16.536Z,48.08
2023-04-06T20:05:43.578Z,47.62
2023-04-06T20:08:10.596Z,47.89
2023-04-06T20:10:37.614Z,47.72
2023-04-06T20:13:04.604Z,47.48
2023-04-06T20:15:31.707Z,47.72
2023-04-06T20:17:58.807Z,47.41
2023-04-06T20:20:25.998Z,47.60
2023-04-06T20:22:52.971Z,47.76
2023-04-06T20:25:19.999Z,48.29
2023-04-06T20:27:46.978Z,47.74
2023-04-06T20:30:15.387Z,47.49
2023-04-06T20:32:43.285Z,47.61
2023-04-06T20:35:10.480Z,47.42
2023-04-06T20:37:58.341Z,46.50
2023-04-06T20:40:25.254Z,47.27
2023-04-06T20:42:55.590Z,47.37
2023-04-06T20:45:22.878Z,48.06
2023-04-06T20:47:53.523Z,48.17
2023-04-06T20:50:24.476Z,48.52
2023-04-06T20:52:51.445Z,48.47
2023-04-06T20:55:18.479Z,48.42
2023-04-06T20:57:46.308Z,49.03
2023-04-06T21:00:13.563Z,49.04
2023-04-06T21:02:41.087Z,48.70
2023-04-06T21:05:09.676Z,49.12
2023-04-06T21:07:37.993Z,50.22
2023-04-06T21:10:07.900Z,50.61
2023-04-06T21:12:34.914Z,53.12
2023-04-06T21:15:02.154Z,52.06
2023-04-06T21:17:29.144Z,52.48
2023-04-06T21:19:56.303Z,50.59
2023-04-06T21:22:23.440Z,52.31
2023-04-06T21:24:50.435Z,50.79
2023-04-06T21:27:17.466Z,52.88
2023-04-06T21:29:44.402Z,54.03
2023-04-06T21:32:11.397Z,55.40
2023-04-06T21:34:38.356Z,54.24
2023-04-06T21:37:05.389Z,56.36
2023-04-06T21:39:32.344Z,56.10
2023-04-06T21:41:59.909Z,57.88
2023-04-06T21:44:26.832Z,59.01
2023-04-06T21:46:53.937Z,58.51
2023-04-06T21:49:20.912Z,60.59
2023-04-06T21:51:47.880Z,58.76
2023-04-06T21:54:15.068Z,61.55
2023-04-06T21:56:42.017Z,60.25
2023-04-06T21:59:08.952Z,57.12
2023-04-06T22:01:36.021Z,59.30
2023-04-06T22:04:03.210Z,59.16
2023-04-06T22:06:30.425Z,62.18
2023-04-06T22:08:58.125Z,60.83
2023-04-06T22:11:25.091Z,61.99
2023-04-06T22:13:52.131Z,58.75
2023-04-06T22:16:19.083Z,61.13
2023-04-06T22:18:46.633Z,60.35
2023-04-06T22:21:13.609Z,62.37
2023-04-06T22:23:42.284Z,64.38
2023-04-06T22:26:11.292Z,65.80
2023-04-06T22:28:38.386Z,62.97
2023-04-06T22:31:05.354Z,64.16
2023-04-06T22:33:32.312Z,63.62
2023-04-06T22:35:59.501Z,64.85
2023-04-06T22:38:26.432Z,66.25
2023-04-06T22:40:53.395Z,65.48
2023-04-06T22:43:20.442Z,65.73
2023-04-06T22:45:47.403Z,65.74
2023-04-06T22:48:14.406Z,64.66
2023-04-06T22:50:41.467Z,66.15
2023-04-06T22:53:08.383Z,67.17
2023-04-06T22:55:35.355Z,69.31
2023-04-06T22:58:02.339Z,69.33
2023-04-06T23:00:29.309Z,69.62
2023-04-06T23:02:56.293Z,68.80
2023-04-06T23:05:23.651Z,69.69
2023-04-06T23:07:53.441Z,68.57
2023-04-06T23:10:20.503Z,68.56
2023-04-06T23:12:48.304Z,71.01
2023-04-06T23:15:15.788Z,71.36
2023-04-06T23:17:42.837Z,73.42
2023-04-06T23:20:09.970Z,73.02
2023-04-06T23:22:36.921Z,75.95
2023-04-06T23:25:04.187Z,73.74
2023-04-06T23:27:31.118Z,74.13
2023-04-06T23:29:58.062Z,72.41
2023-04-06T23:32:25.423Z,73.86
2023-04-06T23:34:52.415Z,72.72
2023-04-06T23:37:19.379Z,73.88
2023-04-06T23:39:48.245Z,73.16
2023-04-06T23:42:15.642Z,75.32
2023-04-06T23:44:42.663Z,76.81
2023-04-06T23:47:09.640Z,75.60
2023-04-06T23:49:36.556Z,75.86
2023-04-06T23:52:03.846Z,74.69
2023-04-06T23:54:30.767Z,73.92
2023-04-06T23:56:58.297Z,75.32
2023-04-06T23:59:25.403Z,76.80
